createdAt,value
2019-06-27T00:00:41.474Z,63.66
2019-06-27T00:03:09.937Z,63.35
2019-06-27T00:05:38.951Z,63.53
2019-06-27T00:08:07.790Z,63.53
2019-06-27T00:10:37.430Z,63.38
2019-06-27T00:13:07.145Z,63.67
2019-06-27T00:15:36.630Z,63.67
2019-06-27T00:18:05.935Z,64.08
2019-06-27T00:20:35.963Z,64.08
2019-06-27T00:23:05.790Z,64.27
2019-06-27T00:27:03.626Z,64.19
2019-06-27T00:29:32.757Z,64.92
2019-06-27T00:32:01.861Z,64.92
2019-06-27T00:34:31.744Z,65.24
2019-06-27T00:37:01.232Z,64.86
2019-06-27T00:39:29.739Z,64.86
2019-06-27T00:41:59.057Z,65.09
2019-06-27T00:44:29.269Z,65.12
2019-06-27T00:46:58.172Z,65.12
2019-06-27T00:49:27.480Z,65.62
2019-06-27T00:52:17.969Z,65.92
2019-06-27T00:54:46.527Z,66.21
2019-06-27T00:57:15.888Z,66.21
2019-06-27T00:59:45.812Z,66.25
2019-06-27T01:02:14.490Z,66.00
2019-06-27T01:04:43.728Z,66.20
2019-06-27T01:07:13.430Z,66.18
2019-06-27T01:09:43.177Z,66.34
2019-06-27T01:12:13.007Z,66.16
2019-06-27T01:15:22.726Z,66.15
2019-06-27T01:17:52.660Z,66.14
2019-06-27T01:20:21.923Z,66.14
2019-06-27T01:22:50.315Z,66.04
2019-06-27T01:25:19.297Z,66.34
2019-06-27T01:27:50.691Z,66.28
2019-06-27T01:30:21.542Z,66.28
2019-06-27T01:32:49.881Z,66.72
2019-06-27T01:35:19.884Z,66.51
2019-06-27T01:37:49.554Z,66.48
2019-06-27T01:40:18.678Z,66.63
2019-06-27T01:42:48.465Z,66.63
2019-06-27T01:45:26.876Z,66.50
2019-06-27T01:47:56.372Z,66.50
2019-06-27T01:50:25.683Z,66.78
2019-06-27T01:52:55.216Z,67.71
2019-06-27T01:55:24.791Z,67.45
2019-06-27T01:57:53.272Z,67.41
2019-06-27T02:00:22.741Z,67.22
2019-06-27T02:02:51.886Z,67.49
2019-06-27T02:05:20.963Z,67.49
2019-06-27T02:07:49.980Z,67.81
2019-06-27T02:10:21.337Z,67.66
2019-06-27T02:12:50.240Z,67.66
2019-06-27T02:15:22.074Z,67.54
2019-06-27T02:17:49.833Z,67.54
2019-06-27T02:20:19.148Z,67.98
2019-06-27T02:22:48.503Z,67.88
2019-06-27T02:25:17.938Z,67.74
2019-06-27T02:28:02.510Z,67.74
2019-06-27T02:30:36.845Z,67.37
2019-06-27T02:33:06.939Z,67.58
2019-06-27T02:35:35.731Z,67.30
2019-06-27T02:38:05.469Z,67.66
2019-06-27T02:40:35.055Z,67.73
2019-06-27T02:43:04.903Z,67.73
2019-06-27T02:45:33.929Z,68.22
2019-06-27T02:48:02.527Z,68.06
2019-06-27T02:50:31.492Z,68.03
2019-06-27T02:53:00.145Z,67.96
2019-06-27T02:55:30.276Z,68.07
2019-06-27T02:57:59.272Z,68.04
2019-06-27T03:00:29.748Z,68.17
2019-06-27T03:02:58.902Z,68.17
2019-06-27T03:05:27.819Z,67.94
2019-06-27T03:07:56.930Z,68.00
2019-06-27T03:10:26.841Z,67.84
2019-06-27T03:12:55.446Z,68.01
2019-06-27T03:15:24.367Z,68.01
2019-06-27T03:17:53.698Z,68.00
2019-06-27T03:20:23.106Z,68.06
2019-06-27T03:22:53.190Z,67.10
2019-06-27T03:25:23.874Z,67.10
2019-06-27T03:27:52.534Z,67.34
2019-06-27T03:30:21.248Z,67.67
2019-06-27T03:32:50.453Z,67.34
2019-06-27T03:35:20.014Z,67.17
2019-06-27T03:40:32.539Z,67.07
2019-06-27T03:43:02.338Z,67.07
2019-06-27T03:45:30.818Z,67.16
2019-06-27T03:47:59.729Z,67.20
2019-06-27T03:50:28.370Z,67.25
2019-06-27T03:52:58.209Z,67.25
2019-06-27T03:55:27.226Z,66.70
2019-06-27T03:57:56.913Z,66.47
2019-06-27T04:00:32.865Z,66.49
2019-06-27T04:03:02.229Z,66.49
2019-06-27T04:05:31.290Z,66.49
2019-06-27T04:08:01.244Z,66.51
2019-06-27T04:10:30.850Z,66.51
2019-06-27T04:13:01.355Z,66.64
2019-06-27T04:15:30.426Z,66.73
2019-06-27T04:18:00.305Z,66.73
2019-06-27T04:20:29.282Z,66.50
2019-06-27T04:22:59.291Z,66.33
2019-06-27T04:28:10.484Z,66.44
2019-06-27T04:30:39.598Z,66.44
2019-06-27T04:33:09.011Z,66.34
2019-06-27T04:35:38.643Z,66.06
2019-06-27T04:38:08.227Z,65.83
2019-06-27T04:40:36.939Z,65.54
2019-06-27T04:43:06.778Z,65.28
2019-06-27T04:45:35.690Z,65.15
2019-06-27T04:48:05.241Z,65.15
2019-06-27T04:50:34.216Z,65.10
2019-06-27T04:55:48.231Z,64.78
2019-06-27T04:58:17.852Z,64.69
2019-06-27T05:00:46.754Z,64.42
2019-06-27T05:03:16.300Z,64.55
2019-06-27T05:05:46.151Z,63.87
2019-06-27T05:08:15.350Z,63.87
2019-06-27T05:10:44.805Z,63.10
2019-06-27T05:13:13.965Z,63.10
2019-06-27T05:15:43.615Z,63.22
2019-06-27T05:18:12.597Z,62.77
2019-06-27T05:20:42.369Z,62.77
2019-06-27T05:23:11.680Z,62.65
2019-06-27T05:25:41.729Z,62.09
2019-06-27T05:28:10.828Z,62.09
2019-06-27T05:30:40.614Z,61.69
2019-06-27T05:33:09.323Z,61.52
2019-06-27T05:35:39.036Z,61.52
2019-06-27T05:38:08.206Z,61.69
2019-06-27T05:40:36.638Z,61.69
2019-06-27T05:43:05.687Z,61.38
2019-06-27T05:45:36.433Z,61.17
2019-06-27T05:48:06.191Z,61.17
2019-06-27T05:50:35.238Z,60.89
2019-06-27T05:53:05.149Z,60.89
2019-06-27T05:55:34.461Z,60.71
2019-06-27T05:58:03.516Z,60.70
2019-06-27T06:00:31.702Z,60.70
2019-06-27T06:03:01.619Z,60.01
2019-06-27T06:05:30.709Z,60.01
2019-06-27T06:07:59.116Z,60.06
2019-06-27T06:10:28.523Z,60.06
2019-06-27T06:12:57.725Z,59.40
2019-06-27T06:15:27.217Z,59.73
2019-06-27T06:17:56.623Z,59.73
2019-06-27T06:20:26.113Z,60.00
2019-06-27T06:22:55.602Z,59.50
2019-06-27T06:25:24.636Z,59.64
2019-06-27T06:27:53.849Z,59.42
2019-06-27T06:30:22.685Z,59.26
2019-06-27T06:32:51.491Z,59.26
2019-06-27T06:35:21.668Z,59.07
2019-06-27T06:37:52.161Z,58.86
2019-06-27T06:40:20.775Z,58.86
2019-06-27T06:42:50.683Z,58.80
2019-06-27T06:45:20.283Z,58.80
2019-06-27T06:47:50.310Z,58.86
2019-06-27T06:50:18.704Z,58.86
2019-06-27T06:52:47.250Z,58.95
2019-06-27T06:55:16.105Z,58.95
2019-06-27T06:57:44.838Z,58.88
2019-06-27T07:00:13.542Z,58.88
2019-06-27T07:02:42.168Z,59.20
2019-06-27T07:05:10.839Z,59.09
2019-06-27T07:07:38.740Z,59.19
2019-06-27T07:10:07.740Z,58.96
2019-06-27T07:12:37.838Z,58.97
2019-06-27T07:15:07.514Z,58.97
2019-06-27T07:17:36.386Z,59.07
2019-06-27T07:20:05.105Z,58.94
2019-06-27T07:22:33.869Z,59.06
2019-06-27T07:25:02.652Z,59.06
2019-06-27T07:27:32.228Z,58.93
2019-06-27T07:30:01.402Z,58.86
2019-06-27T07:32:30.840Z,58.72
2019-06-27T07:34:59.906Z,58.99
2019-06-27T07:37:29.475Z,58.74
2019-06-27T07:39:58.660Z,58.77
2019-06-27T07:42:27.579Z,58.63
2019-06-27T07:44:56.191Z,58.56
2019-06-27T07:47:25.323Z,58.64
2019-06-27T07:49:54.486Z,58.63
2019-06-27T07:52:23.855Z,58.63
2019-06-27T07:54:53.677Z,58.57
2019-06-27T07:57:22.781Z,58.39
2019-06-27T07:59:50.804Z,58.48
2019-06-27T08:02:19.788Z,58.45
2019-06-27T08:04:48.671Z,58.39
2019-06-27T08:07:21.116Z,58.39
2019-06-27T08:09:47.490Z,58.34
2019-06-27T08:12:16.487Z,58.28
2019-06-27T08:14:43.787Z,58.29
2019-06-27T08:17:11.350Z,58.36
2019-06-27T08:19:40.483Z,58.34
2019-06-27T08:22:09.597Z,58.30
2019-06-27T08:24:38.425Z,58.41
2019-06-27T08:27:07.897Z,58.06
2019-06-27T08:29:36.483Z,58.00
2019-06-27T08:32:06.383Z,58.06
2019-06-27T08:34:35.115Z,57.95
2019-06-27T08:37:04.467Z,57.74
2019-06-27T08:39:33.643Z,57.74
2019-06-27T08:42:03.392Z,57.64
2019-06-27T08:44:32.019Z,57.64
2019-06-27T08:47:01.039Z,57.81
2019-06-27T08:49:29.625Z,57.78
2019-06-27T08:51:59.065Z,57.67
2019-06-27T08:54:28.130Z,57.67
2019-06-27T08:56:56.859Z,57.57
2019-06-27T08:59:25.505Z,57.67
2019-06-27T09:02:07.450Z,57.51
2019-06-27T09:04:24.283Z,57.70
2019-06-27T09:06:53.521Z,57.70
2019-06-27T09:09:22.458Z,57.38
2019-06-27T09:11:51.378Z,57.32
2019-06-27T09:14:20.380Z,57.67
2019-06-27T09:16:49.385Z,57.35
2019-06-27T09:19:18.630Z,57.27
2019-06-27T09:21:47.319Z,57.30
2019-06-27T09:24:17.022Z,57.45
2019-06-27T09:26:45.930Z,57.45
2019-06-27T09:29:15.777Z,57.19
2019-06-27T09:31:44.849Z,57.17
2019-06-27T09:34:14.698Z,57.67
2019-06-27T09:36:44.475Z,57.04
2019-06-27T09:39:13.476Z,57.04
2019-06-27T09:41:41.867Z,56.95
2019-06-27T09:44:11.817Z,57.38
2019-06-27T09:46:40.539Z,56.91
2019-06-27T09:49:09.500Z,56.91
2019-06-27T09:51:37.598Z,57.12
2019-06-27T09:54:07.259Z,57.12
2019-06-27T09:56:36.470Z,56.85
2019-06-27T09:59:05.781Z,56.90
2019-06-27T10:01:34.560Z,56.83
2019-06-27T10:04:04.229Z,57.04
2019-06-27T10:06:32.381Z,56.45
2019-06-27T10:09:01.927Z,56.45
2019-06-27T10:11:31.312Z,56.78
2019-06-27T10:14:01.055Z,56.37
2019-06-27T10:16:29.496Z,56.76
2019-06-27T10:18:58.898Z,56.61
2019-06-27T10:21:28.296Z,56.97
2019-06-27T10:23:57.285Z,56.72
2019-06-27T10:26:26.013Z,56.46
2019-06-27T10:28:55.103Z,56.46
2019-06-27T10:31:24.463Z,56.55
2019-06-27T10:33:53.932Z,56.47
2019-06-27T10:36:23.177Z,56.47
2019-06-27T10:38:51.960Z,56.41
2019-06-27T10:41:20.586Z,56.39
2019-06-27T10:43:49.692Z,56.40
2019-06-27T10:46:19.747Z,56.40
2019-06-27T10:48:47.661Z,56.35
2019-06-27T10:51:17.451Z,56.04
2019-06-27T10:53:46.233Z,56.03
2019-06-27T10:56:16.237Z,56.21
2019-06-27T10:58:46.300Z,56.21
2019-06-27T11:01:16.032Z,56.18
2019-06-27T11:03:45.758Z,56.13
2019-06-27T11:06:14.351Z,56.16
2019-06-27T11:08:44.098Z,56.13
2019-06-27T11:11:12.941Z,56.07
2019-06-27T11:13:57.871Z,56.07
2019-06-27T11:16:14.363Z,56.06
2019-06-27T11:18:43.195Z,56.06
2019-06-27T11:21:14.015Z,56.06
2019-06-27T11:23:42.782Z,55.80
2019-06-27T11:26:11.997Z,55.93
2019-06-27T11:28:41.153Z,55.82
2019-06-27T11:31:10.137Z,55.85
2019-06-27T11:33:39.495Z,55.69
2019-06-27T11:36:08.899Z,55.46
2019-06-27T11:38:37.873Z,55.78
2019-06-27T11:41:06.731Z,55.76
2019-06-27T11:43:37.309Z,55.76
2019-06-27T11:46:08.735Z,55.68
2019-06-27T11:48:37.144Z,55.65
2019-06-27T11:51:06.029Z,55.65
2019-06-27T11:53:35.217Z,55.68
2019-06-27T11:56:03.639Z,55.68
2019-06-27T11:58:32.553Z,55.58
2019-06-27T12:01:02.022Z,55.34
2019-06-27T12:03:45.038Z,55.57
2019-06-27T12:06:02.812Z,55.54
2019-06-27T12:08:31.612Z,55.55
2019-06-27T12:11:01.331Z,55.47
2019-06-27T12:13:30.232Z,55.50
2019-06-27T12:15:58.821Z,55.50
2019-06-27T12:18:28.059Z,55.42
2019-06-27T12:20:56.842Z,55.11
2019-06-27T12:23:26.886Z,55.60
2019-06-27T12:25:56.003Z,55.60
2019-06-27T12:28:24.977Z,55.35
2019-06-27T12:30:53.639Z,55.35
2019-06-27T12:33:21.200Z,55.31
2019-06-27T12:35:50.570Z,55.26
2019-06-27T12:38:19.380Z,55.26
2019-06-27T12:40:48.863Z,55.09
2019-06-27T12:43:17.042Z,55.09
2019-06-27T12:45:44.631Z,55.21
2019-06-27T12:48:12.012Z,55.11
2019-06-27T12:50:39.827Z,55.28
2019-06-27T12:53:08.672Z,55.45
2019-06-27T12:55:37.669Z,55.45
2019-06-27T12:58:06.481Z,55.23
2019-06-27T13:03:17.794Z,55.19
2019-06-27T13:05:47.663Z,55.33
2019-06-27T13:08:16.678Z,55.17
2019-06-27T13:10:44.993Z,55.17
2019-06-27T13:13:14.078Z,55.11
2019-06-27T13:15:42.897Z,55.11
2019-06-27T13:18:12.126Z,54.81
2019-06-27T13:20:56.584Z,54.81
2019-06-27T13:23:12.850Z,55.06
2019-06-27T13:25:41.457Z,55.02
2019-06-27T13:28:10.341Z,54.95
2019-06-27T13:30:38.993Z,54.95
2019-06-27T13:33:08.749Z,54.73
2019-06-27T13:35:38.308Z,55.03
2019-06-27T13:38:07.888Z,55.03
2019-06-27T13:40:36.825Z,54.97
2019-06-27T13:43:06.668Z,54.88
2019-06-27T13:45:35.282Z,54.82
2019-06-27T13:48:04.665Z,55.01
2019-06-27T13:50:34.245Z,54.98
2019-06-27T13:53:04.434Z,54.98
2019-06-27T13:55:33.960Z,55.04
2019-06-27T13:58:03.730Z,54.92
2019-06-27T14:00:42.562Z,54.92
2019-06-27T14:03:11.531Z,54.83
2019-06-27T14:05:41.967Z,54.96
2019-06-27T14:08:11.844Z,54.96
2019-06-27T14:10:41.802Z,54.89
2019-06-27T14:13:12.119Z,54.89
2019-06-27T14:15:41.852Z,54.95
2019-06-27T14:18:11.220Z,54.74
2019-06-27T14:20:39.510Z,54.74
2019-06-27T14:23:08.443Z,54.89
2019-06-27T14:25:37.426Z,54.81
2019-06-27T14:28:06.960Z,54.77
2019-06-27T14:30:36.031Z,54.98
2019-06-27T14:33:05.202Z,54.98
2019-06-27T14:35:34.557Z,55.04
2019-06-27T14:38:03.533Z,54.84
2019-06-27T14:40:33.045Z,54.92
2019-06-27T14:43:01.940Z,54.92
2019-06-27T14:47:11.506Z,54.83
2019-06-27T14:49:40.983Z,54.93
2019-06-27T14:52:10.559Z,54.69
2019-06-27T14:54:39.852Z,54.69
2019-06-27T14:57:09.548Z,54.86
2019-06-27T14:59:40.739Z,54.60
2019-06-27T15:02:09.653Z,54.96
2019-06-27T15:04:39.343Z,55.09
2019-06-27T15:07:09.751Z,55.09
2019-06-27T15:09:38.937Z,54.82
2019-06-27T15:12:08.689Z,54.75
2019-06-27T15:14:37.583Z,54.78
2019-06-27T15:17:27.501Z,54.89
2019-06-27T15:19:59.357Z,54.89
2019-06-27T15:22:28.018Z,54.82
2019-06-27T15:24:56.113Z,54.72
2019-06-27T15:27:25.400Z,54.84
2019-06-27T15:29:54.980Z,54.75
2019-06-27T15:32:23.057Z,54.72
2019-06-27T15:34:52.724Z,54.69
2019-06-27T15:37:22.211Z,54.69
2019-06-27T15:39:51.452Z,54.58
2019-06-27T15:42:20.612Z,54.57
2019-06-27T15:44:50.140Z,54.83
2019-06-27T15:47:19.447Z,54.83
2019-06-27T15:49:48.006Z,54.57
2019-06-27T15:52:17.756Z,54.62
2019-06-27T15:54:46.823Z,54.43
2019-06-27T15:57:15.784Z,54.76
2019-06-27T15:59:43.901Z,54.76
2019-06-27T16:02:13.212Z,54.47
2019-06-27T16:04:42.457Z,54.52
2019-06-27T16:07:11.256Z,54.74
2019-06-27T16:09:40.156Z,54.48
2019-06-27T16:12:09.323Z,54.46
2019-06-27T16:14:38.514Z,54.78
2019-06-27T16:17:08.042Z,54.46
2019-06-27T16:19:37.278Z,54.46
2019-06-27T16:22:06.249Z,54.36
2019-06-27T16:24:34.786Z,54.35
2019-06-27T16:27:04.795Z,54.25
2019-06-27T16:29:34.476Z,54.31
2019-06-27T16:32:03.862Z,54.31
2019-06-27T16:34:33.308Z,54.16
2019-06-27T16:37:02.777Z,54.16
2019-06-27T16:39:32.010Z,54.18
2019-06-27T16:42:01.229Z,54.03
2019-06-27T16:44:31.175Z,54.24
2019-06-27T16:47:00.969Z,54.20
2019-06-27T16:49:30.190Z,54.20
2019-06-27T16:51:59.662Z,54.05
2019-06-27T16:54:29.500Z,54.00
2019-06-27T16:56:58.703Z,54.00
2019-06-27T16:59:28.468Z,53.98
2019-06-27T17:01:57.103Z,53.95
2019-06-27T17:04:25.801Z,53.91
2019-06-27T17:06:54.915Z,53.82
2019-06-27T17:09:23.443Z,53.68
2019-06-27T17:11:53.441Z,53.64
2019-06-27T17:14:23.377Z,53.42
2019-06-27T17:16:51.802Z,53.42
2019-06-27T17:19:20.836Z,53.02
2019-06-27T17:21:49.881Z,53.02
2019-06-27T17:24:19.862Z,53.77
2019-06-27T17:26:49.890Z,53.73
2019-06-27T17:29:18.802Z,53.52
2019-06-27T17:31:47.593Z,53.52
2019-06-27T17:34:16.660Z,53.51
2019-06-27T17:36:57.120Z,51.15
2019-06-27T17:39:17.239Z,46.27
2019-06-27T17:41:46.151Z,44.75
2019-06-27T17:44:19.774Z,42.54
2019-06-27T17:46:47.403Z,42.54
2019-06-27T17:49:16.176Z,45.10
2019-06-27T17:51:45.195Z,43.78
2019-06-27T17:54:14.242Z,43.78
2019-06-27T17:56:43.424Z,44.29
2019-06-27T17:59:12.411Z,44.97
2019-06-27T18:01:41.582Z,45.33
2019-06-27T18:04:10.942Z,41.42
2019-06-27T18:06:40.474Z,42.09
2019-06-27T18:09:09.208Z,44.95
2019-06-27T18:11:37.769Z,42.24
2019-06-27T18:14:06.570Z,41.18
2019-06-27T18:16:35.384Z,41.18
2019-06-27T18:19:04.651Z,40.93
2019-06-27T18:21:34.769Z,40.15
2019-06-27T18:24:04.161Z,41.03
2019-06-27T18:26:34.156Z,40.26
2019-06-27T18:29:03.347Z,40.26
2019-06-27T18:31:32.056Z,40.61
2019-06-27T18:34:00.955Z,40.61
2019-06-27T18:36:30.707Z,40.04
2019-06-27T18:39:00.496Z,40.04
2019-06-27T18:41:29.652Z,39.42
2019-06-27T18:43:59.078Z,38.13
2019-06-27T18:46:29.547Z,38.99
2019-06-27T18:48:58.323Z,37.94
2019-06-27T18:51:27.953Z,37.94
2019-06-27T18:54:00.789Z,38.13
2019-06-27T18:56:28.642Z,38.26
2019-06-27T18:58:57.397Z,38.26
2019-06-27T19:01:26.816Z,36.83
2019-06-27T19:03:55.366Z,37.82
2019-06-27T19:09:00.600Z,36.56
2019-06-27T19:11:28.625Z,36.56
2019-06-27T19:15:12.635Z,35.98
2019-06-27T19:17:42.010Z,35.98
2019-06-27T19:20:23.668Z,35.93
2019-06-27T19:23:07.094Z,35.93
2019-06-27T19:25:36.843Z,36.74
2019-06-27T19:28:05.842Z,35.45
2019-06-27T19:30:34.924Z,35.45
2019-06-27T19:33:04.554Z,36.11
2019-06-27T19:35:34.268Z,34.73
2019-06-27T19:38:03.253Z,34.37
2019-06-27T19:40:32.244Z,34.35
2019-06-27T19:43:01.599Z,34.64
2019-06-27T19:45:31.315Z,34.64
2019-06-27T19:48:02.540Z,33.51
2019-06-27T19:50:31.752Z,33.82
2019-06-27T19:53:00.885Z,33.33
2019-06-27T19:55:30.478Z,33.33
2019-06-27T19:57:59.230Z,33.75
2019-06-27T20:00:28.489Z,34.21
2019-06-27T20:02:58.129Z,34.21
2019-06-27T20:05:27.515Z,34.61
2019-06-27T20:07:56.625Z,34.61
2019-06-27T20:10:25.619Z,32.41
2019-06-27T20:12:56.048Z,32.41
2019-06-27T20:15:25.111Z,32.68
2019-06-27T20:17:55.223Z,32.24
2019-06-27T20:20:24.589Z,31.79
2019-06-27T20:22:53.613Z,31.79
2019-06-27T20:25:22.554Z,32.29
2019-06-27T20:27:51.341Z,31.75
2019-06-27T20:30:20.366Z,32.35
2019-06-27T20:32:51.439Z,32.35
2019-06-27T20:35:20.903Z,32.32
2019-06-27T20:37:49.616Z,32.32
2019-06-27T20:40:18.898Z,32.46
2019-06-27T20:42:47.589Z,32.85
2019-06-27T20:45:18.785Z,33.37
2019-06-27T20:47:49.139Z,33.13
2019-06-27T20:50:18.860Z,33.13
2019-06-27T20:52:48.626Z,33.30
2019-06-27T20:55:17.814Z,33.86
2019-06-27T20:57:47.907Z,33.74
2019-06-27T21:00:18.965Z,34.45
2019-06-27T21:02:48.376Z,34.45
2019-06-27T21:05:17.199Z,35.69
2019-06-27T21:07:46.747Z,35.33
2019-06-27T21:10:16.301Z,35.33
2019-06-27T21:12:45.931Z,36.38
2019-06-27T21:15:14.737Z,36.38
2019-06-27T21:17:44.929Z,36.71
2019-06-27T21:20:15.532Z,37.28
2019-06-27T21:22:46.058Z,37.62
2019-06-27T21:25:16.878Z,38.50
2019-06-27T21:27:45.696Z,38.50
2019-06-27T21:30:14.731Z,38.98
2019-06-27T21:32:48.188Z,38.88
2019-06-27T21:35:15.729Z,39.72
2019-06-27T21:37:45.188Z,39.53
2019-06-27T21:40:14.452Z,40.30
2019-06-27T21:42:43.156Z,40.42
2019-06-27T21:45:11.867Z,41.10
2019-06-27T21:49:27.018Z,41.58
2019-06-27T21:51:57.980Z,41.53
2019-06-27T21:54:28.286Z,41.41
2019-06-27T21:56:57.327Z,41.59
2019-06-27T21:59:27.088Z,41.59
2019-06-27T22:01:56.883Z,42.68
2019-06-27T22:04:25.195Z,42.68
2019-06-27T22:06:55.472Z,42.14
2019-06-27T22:09:25.646Z,42.82
2019-06-27T22:11:54.615Z,42.82
2019-06-27T22:14:23.505Z,42.95
2019-06-27T22:16:56.221Z,43.17
2019-06-27T22:19:25.463Z,43.04
2019-06-27T22:21:54.552Z,43.07
2019-06-27T22:24:23.754Z,43.07
2019-06-27T22:26:52.984Z,43.14
2019-06-27T22:29:22.773Z,43.35
2019-06-27T22:31:52.666Z,43.35
2019-06-27T22:34:23.597Z,43.18
2019-06-27T22:37:03.127Z,43.75
2019-06-27T22:39:52.407Z,44.20
2019-06-27T22:42:40.368Z,44.33
2019-06-27T22:45:27.859Z,44.33
2019-06-27T22:48:12.630Z,43.30
2019-06-27T22:51:06.058Z,42.73
2019-06-27T22:53:39.177Z,43.34
2019-06-27T22:56:08.593Z,44.23
2019-06-27T22:59:22.509Z,43.86
2019-06-27T23:01:51.417Z,44.37
2019-06-27T23:04:20.407Z,44.14
2019-06-27T23:06:50.074Z,45.26
2019-06-27T23:09:18.760Z,44.94
2019-06-27T23:11:48.163Z,44.94
2019-06-27T23:14:17.024Z,45.82
2019-06-27T23:16:46.289Z,46.18
2019-06-27T23:19:14.911Z,46.37
2019-06-27T23:21:43.880Z,46.50
2019-06-27T23:24:13.371Z,46.50
2019-06-27T23:26:42.410Z,47.14
2019-06-27T23:29:11.601Z,46.67
2019-06-27T23:31:41.089Z,46.67
2019-06-27T23:34:10.337Z,46.34
2019-06-27T23:36:39.061Z,46.34
2019-06-27T23:39:08.348Z,46.64
2019-06-27T23:41:37.562Z,47.33
2019-06-27T23:44:06.366Z,47.33
2019-06-27T23:46:40.233Z,46.95
2019-06-27T23:49:11.938Z,46.95
2019-06-27T23:51:41.139Z,47.66
2019-06-27T23:54:11.013Z,47.26
2019-06-27T23:56:39.465Z,48.07
2019-06-27T23:59:08.888Z,47.95
